Sao Francisco do Para, Brazil
Current Conditions -  °F | °C
As of 8:00 PM on Sunday 21 Dec 2014 (Local Time) from SBBE Reporting Station
Broken Clouds Broken Clouds  
Wind Chill: 79°   Ceiling: 10000
Heat Index: 82°   Visibility: 6mi
Dew Point: 73°   Wind: 6mph
Humidity: 83%   Direction: 40°NE
Pressure: 29.83"   Gusts: NA
Location:  1.17°S, 47.8°W
Report Text: SBBE 212300Z 04005KT 9999 SCT020 FEW025TCU BKN100 26/23 Q1010 RETS
Loading
Personal Weather Stations






























Interactive Weather Map New forecast layout! Learn more

10-Day Weather Forecast

Advertisements
Track Severe Weather on mobile